Time;durP1;ratioP1;P1;durP2;ratioP2;P2;SDS_P1;SDS_P2;PMS_P1;PMS_P2;Temp;Humidity;BMP_temperature;BMP_pressure;BME280_temperature;BME280_humidity;BME280_pressure;Samples;Min_cycle;Max_cycle;Signal;HPM_P1;HPM_P2
2023/11/23 00:00:27;;;;;;;18.60;11.00;;;;;;;0.94;88.46;96118.34;106704;1275;22614;-80
2023/11/23 00:03:15;;;;;;;17.60;9.90;;;;;;;0.92;88.50;96120.73;106714;1275;25254;-81
2023/11/23 00:05:43;;;;;;;15.90;10.40;;;;;;;0.89;88.57;96124.27;106667;1275;22567;-80
2023/11/23 00:08:12;;;;;;;17.80;9.80;;;;;;;0.79;88.40;96130.25;106900;1275;22523;-80
2023/11/23 00:10:40;;;;;;;15.20;9.80;;;;;;;0.77;88.42;96131.23;106757;1275;22679;-80
2023/11/23 00:13:08;;;;;;;18.30;10.10;;;;;;;0.77;88.50;96126.89;106776;1275;23877;-80
2023/11/23 00:15:36;;;;;;;23.70;10.20;;;;;;;0.77;88.70;96129.51;106706;1275;24253;-80
2023/11/23 00:18:04;;;;;;;17.10;8.80;;;;;;;0.71;88.79;96136.08;106739;1275;22534;-80
2023/11/23 00:20:32;;;;;;;16.10;8.60;;;;;;;0.67;89.30;96138.23;106684;1275;22531;-80
2023/11/23 00:23:00;;;;;;;18.10;9.30;;;;;;;0.65;89.62;96133.14;107044;1275;25366;-80
2023/11/23 00:25:29;;;;;;;15.40;8.50;;;;;;;0.64;90.28;96135.18;106887;1275;24219;-80
2023/11/23 00:27:57;;;;;;;17.70;8.40;;;;;;;0.62;90.16;96137.39;106810;1275;22535;-80
2023/11/23 00:30:25;;;;;;;15.10;8.40;;;;;;;0.62;90.70;96136.52;106690;1275;22522;-80
2023/11/23 00:32:53;;;;;;;16.40;8.20;;;;;;;0.62;90.24;96131.50;106740;1275;24278;-80
2023/11/23 00:35:22;;;;;;;17.60;9.40;;;;;;;0.64;89.86;96133.64;106541;1275;25402;-80
2023/11/23 00:37:50;;;;;;;22.10;11.40;;;;;;;0.63;89.62;96135.52;106684;1275;22655;-80
2023/11/23 00:40:18;;;;;;;19.60;10.20;;;;;;;0.67;89.89;96132.69;106717;1275;22657;-80
2023/11/23 00:42:46;;;;;;;18.40;10.50;;;;;;;0.78;90.37;96137.83;106592;1275;25413;-80
2023/11/23 00:45:15;;;;;;;21.40;10.60;;;;;;;0.89;90.49;96136.05;106721;1275;22580;-80
2023/11/23 00:47:43;;;;;;;20.20;10.30;;;;;;;0.97;90.62;96128.81;106754;1273;23001;-80
2023/11/23 00:50:11;;;;;;;18.00;10.30;;;;;;;1.05;90.58;96126.45;106837;1275;22522;-80
2023/11/23 00:52:40;;;;;;;22.20;10.30;;;;;;;1.13;90.32;96121.61;106717;1273;22609;-80
2023/11/23 00:55:09;;;;;;;23.90;11.50;;;;;;;1.14;89.52;96118.36;106740;1263;24381;-80
2023/11/23 00:57:38;;;;;;;19.20;10.10;;;;;;;1.11;89.30;96123.48;106755;1275;22534;-80
2023/11/23 01:00:07;;;;;;;19.40;10.70;;;;;;;1.15;89.90;96120.98;106604;1260;24387;-80
2023/11/23 01:02:36;;;;;;;24.00;11.30;;;;;;;1.23;89.73;96116.52;106768;1275;22529;-80
2023/11/23 01:05:05;;;;;;;21.70;10.80;;;;;;;1.22;89.25;96118.92;106662;1270;22524;-80
2023/11/23 01:07:34;;;;;;;20.90;10.70;;;;;;;1.33;89.90;96118.50;106585;1275;22523;-80
2023/11/23 01:10:02;;;;;;;20.10;10.90;;;;;;;1.36;89.21;96120.30;106846;1275;25415;-79
2023/11/23 01:12:31;;;;;;;21.10;10.70;;;;;;;1.41;89.48;96122.36;106598;1275;22517;-80
2023/11/23 01:15:00;;;;;;;18.10;10.30;;;;;;;1.50;89.70;96126.89;106804;1275;22517;-80
2023/11/23 01:17:29;;;;;;;20.70;10.50;;;;;;;1.51;88.83;96129.17;106768;1275;23904;-80
2023/11/23 01:19:57;;;;;;;21.60;10.60;;;;;;;1.55;88.99;96126.14;106830;1275;25606;-80
2023/11/23 01:22:25;;;;;;;17.70;9.50;;;;;;;1.58;89.04;96125.02;106588;1275;24326;-80
2023/11/23 01:24:54;;;;;;;17.60;9.00;;;;;;;1.54;88.24;96122.84;106668;1275;22559;-79
2023/11/23 01:27:22;;;;;;;14.10;9.20;;;;;;;1.45;87.77;96119.83;106570;1275;24328;-80
2023/11/23 01:29:51;;;;;;;18.50;9.10;;;;;;;1.37;87.92;96124.30;106748;1275;22520;-80
2023/11/23 01:32:19;;;;;;;18.90;10.30;;;;;;;1.31;88.08;96129.21;106722;1275;24228;-80
2023/11/23 01:34:47;;;;;;;15.40;8.80;;;;;;;1.29;88.33;96130.54;106779;1275;25491;-80
2023/11/23 01:37:16;;;;;;;16.70;9.00;;;;;;;1.25;88.35;96134.41;106719;1275;22519;-80
2023/11/23 01:39:44;;;;;;;14.10;8.30;;;;;;;1.21;88.26;96127.73;106622;1275;22542;-80
2023/11/23 01:42:12;;;;;;;18.10;8.30;;;;;;;1.15;88.45;96123.41;106614;1275;23963;-80
2023/11/23 01:44:40;;;;;;;16.20;8.80;;;;;;;1.12;88.70;96122.11;106686;1275;22546;-80
2023/11/23 01:47:12;;;;;;;14.00;6.50;;;;;;;1.11;88.75;96122.08;106578;1275;22639;-80
2023/11/23 01:49:43;;;;;;;14.10;8.30;;;;;;;0.99;88.26;96120.55;106762;1254;24240;-80
2023/11/23 01:52:12;;;;;;;13.60;8.10;;;;;;;0.94;88.22;96122.51;106793;1275;24282;-80
2023/11/23 01:54:41;;;;;;;13.70;8.20;;;;;;;0.93;88.49;96116.74;106700;1275;22527;-80
2023/11/23 01:57:11;;;;;;;10.00;6.10;;;;;;;0.92;88.83;96110.52;107048;1275;22709;-80
2023/11/23 01:59:39;;;;;;;16.20;7.70;;;;;;;0.89;88.72;96114.05;106775;1275;22529;-80
2023/11/23 02:02:07;;;;;;;14.10;7.40;;;;;;;0.88;89.24;96110.21;106774;1275;25290;-80
2023/11/23 02:04:36;;;;;;;12.20;6.70;;;;;;;0.90;89.74;96104.39;106743;1275;24198;-80
2023/11/23 02:07:05;;;;;;;11.80;6.10;;;;;;;0.86;89.69;96103.23;106588;1275;24229;-80
2023/11/23 02:09:34;;;;;;;9.90;5.80;;;;;;;0.86;89.45;96098.73;106807;1275;25411;-81
2023/11/23 02:12:06;;;;;;;10.60;6.50;;;;;;;0.81;89.66;96100.00;106813;1275;25511;-80
2023/11/23 02:14:36;;;;;;;11.50;6.90;;;;;;;0.86;90.19;96103.58;106745;1275;22773;-80
2023/11/23 02:17:18;;;;;;;12.10;6.60;;;;;;;0.90;90.20;96100.91;106703;1275;24445;-81
2023/11/23 02:19:48;;;;;;;11.30;6.60;;;;;;;0.97;90.49;96101.11;106825;1275;22544;-80
2023/11/23 02:22:17;;;;;;;15.40;8.20;;;;;;;1.01;90.19;96108.83;106766;1275;25520;-80
2023/11/23 02:24:45;;;;;;;15.10;8.50;;;;;;;1.12;90.41;96105.65;106632;1259;22556;-80
2023/11/23 02:27:13;;;;;;;17.50;9.30;;;;;;;1.20;90.19;96110.54;106806;1275;22519;-80
2023/11/23 02:29:41;;;;;;;18.10;9.70;;;;;;;1.25;90.27;96119.86;106655;1275;22537;-80
2023/11/23 02:32:10;;;;;;;19.40;9.90;;;;;;;1.28;90.08;96119.25;106762;1275;22533;-80
2023/11/23 02:34:39;;;;;;;18.90;9.60;;;;;;;1.33;90.07;96120.91;106674;1275;24219;-80
2023/11/23 02:37:07;;;;;;;16.70;8.50;;;;;;;1.32;89.76;96125.24;106664;1275;22519;-80
2023/11/23 02:39:35;;;;;;;16.50;8.90;;;;;;;1.33;90.28;96127.52;106781;1275;23007;-80
2023/11/23 02:42:04;;;;;;;16.00;9.30;;;;;;;1.28;90.61;96128.93;106724;1275;22532;-80
2023/11/23 02:44:34;;;;;;;15.40;8.20;;;;;;;1.25;91.20;96128.85;106820;1275;24470;-80
2023/11/23 02:47:02;;;;;;;13.60;7.50;;;;;;;1.24;90.98;96120.87;106759;1275;25497;-80
2023/11/23 02:49:30;;;;;;;14.20;7.40;;;;;;;1.20;91.19;96121.97;106734;1275;25368;-80
2023/11/23 02:51:58;;;;;;;12.70;7.00;;;;;;;1.17;91.09;96120.67;106949;1275;22575;-80
2023/11/23 02:54:27;;;;;;;15.70;8.90;;;;;;;1.11;91.68;96113.42;106810;1275;24287;-81
2023/11/23 02:56:55;;;;;;;18.00;11.50;;;;;;;1.18;91.61;96117.08;106700;1275;22530;-81
2023/11/23 02:59:23;;;;;;;22.60;12.10;;;;;;;1.21;91.77;96113.52;106709;1275;25935;-81
2023/11/23 03:01:51;;;;;;;24.50;13.30;;;;;;;1.22;91.87;96118.55;107015;1275;25427;-82
2023/11/23 03:04:21;;;;;;;14.80;8.40;;;;;;;1.21;91.96;96125.48;106646;1275;22645;-82
2023/11/23 03:06:50;;;;;;;11.00;6.60;;;;;;;1.21;92.24;96127.39;106717;1275;22521;-81
2023/11/23 03:09:19;;;;;;;11.20;6.90;;;;;;;1.27;92.32;96128.40;106821;1275;22527;-81
2023/11/23 03:11:48;;;;;;;8.50;6.10;;;;;;;1.30;91.81;96129.54;106943;1275;22549;-81
2023/11/23 03:14:16;;;;;;;9.30;6.40;;;;;;;1.30;90.96;96132.82;106919;1275;24250;-80
2023/11/23 03:16:45;;;;;;;9.40;6.70;;;;;;;1.27;90.41;96129.77;106765;1275;22560;-80
2023/11/23 03:19:14;;;;;;;10.70;6.00;;;;;;;1.21;89.78;96129.98;106890;1275;24219;-81
2023/11/23 03:21:43;;;;;;;9.70;6.10;;;;;;;1.11;89.19;96124.17;106716;1275;24278;-82
2023/11/23 03:24:11;;;;;;;8.40;5.50;;;;;;;1.06;88.84;96126.11;106704;1275;22783;-81
2023/11/23 03:26:40;;;;;;;7.00;4.70;;;;;;;0.97;88.51;96133.52;106807;1275;23128;-81
2023/11/23 03:29:08;;;;;;;8.80;5.60;;;;;;;0.88;88.37;96133.43;106748;1275;22556;-81
2023/11/23 03:31:36;;;;;;;9.10;4.80;;;;;;;0.82;88.04;96132.05;106798;1275;22531;-81
2023/11/23 03:34:04;;;;;;;8.70;5.60;;;;;;;0.78;88.40;96127.63;106969;1275;22534;-81
2023/11/23 03:36:32;;;;;;;8.50;4.90;;;;;;;0.70;87.80;96126.70;106852;1275;24287;-80
2023/11/23 03:39:00;;;;;;;8.20;5.20;;;;;;;0.64;87.42;96128.61;106976;1275;22522;-80
2023/11/23 03:41:28;;;;;;;8.40;5.00;;;;;;;0.63;87.96;96136.55;107111;1275;22528;-80
2023/11/23 03:43:57;;;;;;;6.90;3.70;;;;;;;0.57;87.46;96133.27;106780;1275;22539;-80
2023/11/23 03:46:26;;;;;;;7.40;4.50;;;;;;;0.51;87.05;96137.08;106976;1253;22520;-80
2023/11/23 03:48:56;;;;;;;6.00;4.10;;;;;;;0.49;87.09;96126.09;107095;1275;24253;-80
2023/11/23 03:51:24;;;;;;;5.80;3.50;;;;;;;0.46;86.77;96126.89;106669;1275;24375;-80
2023/11/23 03:53:53;;;;;;;6.20;4.00;;;;;;;0.46;85.32;96134.85;106790;1275;23908;-81
2023/11/23 03:56:22;;;;;;;8.10;3.80;;;;;;;0.46;84.41;96139.85;106992;1275;22531;-80
2023/11/23 03:58:50;;;;;;;5.00;3.20;;;;;;;0.47;84.04;96144.92;106932;1275;24679;-81
2023/11/23 04:01:18;;;;;;;5.00;3.20;;;;;;;0.52;83.03;96141.95;106893;1275;24385;-80
2023/11/23 04:03:47;;;;;;;5.20;3.00;;;;;;;0.56;83.38;96149.15;106903;1275;24218;-80
2023/11/23 04:06:15;;;;;;;5.50;3.20;;;;;;;0.57;83.57;96143.64;106713;1275;22536;-80
2023/11/23 04:08:43;;;;;;;5.20;3.20;;;;;;;0.59;84.17;96149.23;106688;1275;22672;-81
2023/11/23 04:11:11;;;;;;;4.50;2.80;;;;;;;0.59;84.32;96149.77;106794;1275;25347;-80
2023/11/23 04:13:39;;;;;;;4.70;3.00;;;;;;;0.60;84.10;96149.80;106745;1275;22527;-80
2023/11/23 04:16:08;;;;;;;6.40;4.00;;;;;;;0.50;83.97;96149.67;106785;1275;25297;-79
2023/11/23 04:18:41;;;;;;;15.20;9.50;;;;;;;0.42;84.50;96156.55;106917;1275;22581;-81
2023/11/23 04:21:09;;;;;;;41.50;25.00;;;;;;;0.38;85.50;96162.99;107034;1275;22571;-82
2023/11/23 04:23:38;;;;;;;13.20;8.50;;;;;;;0.38;85.12;96160.95;106740;1275;22561;-82
2023/11/23 04:26:06;;;;;;;15.10;8.40;;;;;;;0.38;85.96;96168.19;106858;1275;22520;-81
2023/11/23 04:28:35;;;;;;;7.60;4.80;;;;;;;0.44;85.87;96172.19;106597;1275;22534;-80
2023/11/23 04:31:04;;;;;;;15.60;7.20;;;;;;;0.34;84.99;96168.06;106719;1275;24513;-79
2023/11/23 04:33:33;;;;;;;5.80;3.80;;;;;;;0.20;85.00;96167.13;106776;1275;24282;-81
2023/11/23 04:36:03;;;;;;;4.20;2.90;;;;;;;0.11;85.17;96163.56;106769;1275;24235;-80
2023/11/23 04:38:32;;;;;;;4.00;2.80;;;;;;;-0.06;84.83;96160.80;107081;1275;24409;-80
2023/11/23 04:41:00;;;;;;;4.30;3.00;;;;;;;-0.16;85.00;96158.05;106702;1275;24470;-80
2023/11/23 04:43:29;;;;;;;3.80;2.80;;;;;;;-0.27;85.54;96156.69;106723;1275;22519;-81
2023/11/23 04:45:57;;;;;;;6.20;4.30;;;;;;;-0.36;85.58;96159.50;106692;1275;22577;-80
2023/11/23 04:48:25;;;;;;;11.50;5.30;;;;;;;-0.43;86.11;96158.05;106738;1275;22649;-80
2023/11/23 04:50:53;;;;;;;61.70;32.70;;;;;;;-0.52;86.70;96157.08;106736;1275;22611;-80
2023/11/23 04:53:22;;;;;;;15.70;9.60;;;;;;;-0.58;86.50;96154.98;106562;1275;22639;-81
2023/11/23 04:55:50;;;;;;;7.20;4.90;;;;;;;-0.66;86.81;96151.59;106731;1275;24504;-81
2023/11/23 04:58:18;;;;;;;9.20;5.30;;;;;;;-0.73;86.87;96147.54;106813;1275;23906;-81
2023/11/23 05:00:48;;;;;;;9.30;5.70;;;;;;;-0.80;86.82;96143.00;106760;1275;25414;-81
2023/11/23 05:03:16;;;;;;;9.60;6.70;;;;;;;-0.84;87.10;96139.76;106663;1275;25428;-80
2023/11/23 05:05:44;;;;;;;11.70;4.10;;;;;;;-0.82;87.32;96129.80;106816;1275;25379;-80
2023/11/23 05:08:12;;;;;;;5.70;3.90;;;;;;;-0.82;87.26;96133.80;106696;1275;24263;-80
2023/11/23 05:10:42;;;;;;;7.30;4.60;;;;;;;-0.82;87.45;96138.61;106699;1275;24289;-80
2023/11/23 05:13:10;;;;;;;11.50;7.70;;;;;;;-0.86;87.47;96144.20;106829;1275;23913;-80
2023/11/23 05:15:39;;;;;;;14.60;7.80;;;;;;;-0.90;87.88;96144.23;106838;1275;24290;-81
2023/11/23 05:18:07;;;;;;;15.60;8.50;;;;;;;-0.96;88.44;96142.98;106745;1275;25351;-81
2023/11/23 05:20:35;;;;;;;9.00;4.90;;;;;;;-1.00;88.44;96145.27;106662;1275;22569;-81
2023/11/23 05:23:03;;;;;;;8.10;4.70;;;;;;;-1.06;88.02;96145.75;106681;1267;22759;-81
2023/11/23 05:25:32;;;;;;;11.20;6.30;;;;;;;-1.14;87.75;96139.45;106713;1275;22523;-80
2023/11/23 05:28:00;;;;;;;10.50;6.30;;;;;;;-1.13;88.29;96137.42;106683;1275;22530;-80
2023/11/23 05:30:28;;;;;;;7.50;4.50;;;;;;;-1.09;88.86;96135.80;106762;1275;22589;-81
2023/11/23 05:32:57;;;;;;;6.40;4.30;;;;;;;-1.09;88.71;96131.84;106759;1275;22518;-80
2023/11/23 05:35:25;;;;;;;5.90;3.70;;;;;;;-1.05;88.72;96135.57;106918;1275;25438;-81
2023/11/23 05:37:53;;;;;;;6.70;3.70;;;;;;;-1.01;88.69;96136.41;106816;1275;22523;-81
2023/11/23 05:40:21;;;;;;;6.30;3.60;;;;;;;-1.00;88.41;96141.11;106835;1275;25968;-81
2023/11/23 05:42:50;;;;;;;6.00;3.90;;;;;;;-1.00;88.74;96142.68;106753;1275;24251;-81
2023/11/23 05:45:32;;;;;;;6.00;3.80;;;;;;;-0.95;88.76;96142.48;106691;1275;24216;-81
2023/11/23 05:48:01;;;;;;;6.60;3.80;;;;;;;-0.82;88.91;96142.94;106844;1275;25453;-81
2023/11/23 05:50:30;;;;;;;6.90;4.30;;;;;;;-0.75;88.71;96151.15;106816;1275;24417;-81
2023/11/23 05:52:58;;;;;;;9.60;5.30;;;;;;;-0.63;89.11;96151.01;106727;1275;24504;-81
2023/11/23 05:55:26;;;;;;;16.70;8.00;;;;;;;-0.49;89.22;96157.17;106783;1275;25435;-81
2023/11/23 05:57:54;;;;;;;18.80;7.80;;;;;;;-0.41;88.46;96165.38;106605;1275;23899;-82
2023/11/23 06:00:22;;;;;;;26.30;11.10;;;;;;;-0.42;88.10;96175.20;106814;1275;25425;-80
2023/11/23 06:02:50;;;;;;;14.80;7.50;;;;;;;-0.45;87.34;96179.61;107021;1275;24080;-84
2023/11/23 06:05:18;;;;;;;9.00;4.30;;;;;;;-0.54;87.07;96186.55;106829;1275;24274;-83
2023/11/23 06:07:47;;;;;;;7.00;4.50;;;;;;;-0.60;87.25;96185.31;107088;1275;25246;-81
2023/11/23 06:10:15;;;;;;;6.00;3.50;;;;;;;-0.62;87.46;96184.73;107109;1275;22521;-79
2023/11/23 06:12:43;;;;;;;10.50;4.90;;;;;;;-0.63;87.50;96183.66;106895;1275;23965;-79
2023/11/23 06:15:11;;;;;;;12.70;7.70;;;;;;;-0.67;87.43;96188.05;106826;1275;24384;-77
2023/11/23 06:17:40;;;;;;;49.50;19.00;;;;;;;-0.70;87.52;96197.95;106801;1275;25504;-77
2023/11/23 06:20:11;;;;;;;34.80;16.20;;;;;;;-0.71;88.09;96201.54;106928;1275;25361;-77
2023/11/23 06:22:40;;;;;;;23.60;12.50;;;;;;;-0.72;88.45;96198.90;110502;1275;22994;-76
2023/11/23 06:25:08;;;;;;;26.40;14.00;;;;;;;-0.70;88.61;96199.84;107179;1275;25385;-76
2023/11/23 06:27:36;;;;;;;25.20;12.50;;;;;;;-0.69;88.57;96199.19;106890;1275;22628;-76
2023/11/23 06:30:05;;;;;;;31.90;15.80;;;;;;;-0.75;87.89;96192.08;106888;1275;22652;-78
2023/11/23 06:32:34;;;;;;;33.90;17.00;;;;;;;-0.79;87.84;96188.30;106792;1275;24400;-77
2023/11/23 06:35:02;;;;;;;41.80;20.40;;;;;;;-0.75;88.11;96185.48;106847;1275;22645;-77
2023/11/23 06:37:30;;;;;;;39.30;19.00;;;;;;;-0.70;88.28;96183.60;106778;1275;22770;-76
2023/11/23 06:39:58;;;;;;;75.20;31.90;;;;;;;-0.68;88.56;96177.27;106735;1275;22556;-77
2023/11/23 06:42:27;;;;;;;95.30;39.60;;;;;;;-0.64;88.98;96171.88;106690;1275;22599;-77
2023/11/23 06:44:56;;;;;;;34.30;16.50;;;;;;;-0.56;89.27;96168.17;106833;1275;24443;-78
2023/11/23 06:47:25;;;;;;;14.60;7.70;;;;;;;-0.48;89.08;96164.11;106878;1275;22638;-77
2023/11/23 06:49:54;;;;;;;65.60;32.50;;;;;;;-0.42;88.94;96165.86;106756;1263;22527;-79
2023/11/23 06:52:22;;;;;;;65.60;32.30;;;;;;;-0.39;88.83;96172.02;106748;1275;22540;-81
2023/11/23 06:54:50;;;;;;;64.80;35.30;;;;;;;-0.36;88.95;96173.52;106851;1275;22538;-78
2023/11/23 06:57:18;;;;;;;62.00;32.20;;;;;;;-0.32;88.80;96175.36;106715;1275;240971;-79
2023/11/23 06:59:48;;;;;;;72.80;33.40;;;;;;;-0.30;88.75;96171.30;106652;1275;22571;-79
2023/11/23 07:02:16;;;;;;;76.80;31.80;;;;;;;-0.27;88.83;96173.46;106750;1275;22523;-80
2023/11/23 07:04:44;;;;;;;86.90;36.60;;;;;;;-0.25;88.63;96173.52;106743;1275;24579;-80
2023/11/23 07:07:13;;;;;;;84.60;39.10;;;;;;;-0.23;88.31;96174.24;106879;1275;24234;-80
2023/11/23 07:09:41;;;;;;;102.10;46.20;;;;;;;-0.17;88.47;96171.20;106701;1275;25636;-80
2023/11/23 07:12:11;;;;;;;122.50;53.40;;;;;;;-0.07;88.63;96171.50;106907;1275;23919;-78
2023/11/23 07:14:41;;;;;;;108.20;49.10;;;;;;;0.05;88.97;96165.49;107093;1275;22523;-80
2023/11/23 07:17:09;;;;;;;93.60;45.20;;;;;;;0.21;89.00;96155.21;107151;1262;22527;-81
2023/11/23 07:19:37;;;;;;;78.40;40.90;;;;;;;0.39;89.41;96144.70;107031;1275;23016;-81
2023/11/23 07:22:05;;;;;;;45.10;22.60;;;;;;;0.56;88.59;96131.85;106770;1275;22995;-80
2023/11/23 07:24:33;;;;;;;23.60;12.10;;;;;;;0.66;87.20;96119.33;106729;1275;22530;-78
2023/11/23 07:27:02;;;;;;;16.90;9.30;;;;;;;0.77;86.57;96126.20;106847;1275;22543;-80
2023/11/23 07:29:31;;;;;;;11.80;7.40;;;;;;;0.90;86.31;96121.89;106663;1275;24274;-80
2023/11/23 07:32:00;;;;;;;51.50;26.40;;;;;;;1.03;85.16;96123.62;106950;1275;25571;-81
2023/11/23 07:34:28;;;;;;;33.60;18.60;;;;;;;1.27;86.08;96119.21;106824;1275;24440;-80
2023/11/23 07:36:57;;;;;;;27.50;16.30;;;;;;;1.46;86.06;96117.96;106891;1275;24248;-82
2023/11/23 07:39:25;;;;;;;23.70;14.20;;;;;;;1.61;86.12;96116.59;106834;1275;22546;-79
2023/11/23 07:41:53;;;;;;;22.70;13.10;;;;;;;1.80;85.95;96120.33;106744;1275;22480;-81
2023/11/23 07:44:21;;;;;;;24.30;13.30;;;;;;;1.89;84.89;96121.94;106737;1274;22527;-77
2023/11/23 07:46:49;;;;;;;23.40;13.30;;;;;;;1.92;84.54;96117.66;106953;1274;25355;-79
2023/11/23 07:49:17;;;;;;;26.60;14.50;;;;;;;1.97;84.05;96115.86;107010;1274;22523;-81
2023/11/23 07:51:45;;;;;;;26.40;13.10;;;;;;;2.05;83.64;96111.38;106991;1274;24422;-78
2023/11/23 07:54:13;;;;;;;22.10;11.90;;;;;;;2.11;83.20;96113.93;106868;1274;22671;-79
2023/11/23 07:56:41;;;;;;;19.10;11.70;;;;;;;2.13;81.83;96113.63;107029;1256;22524;-78
2023/11/23 07:59:10;;;;;;;19.20;12.40;;;;;;;2.13;82.30;96118.32;106929;1274;23276;-79
2023/11/23 08:01:38;;;;;;;20.10;12.50;;;;;;;2.16;82.35;96114.05;106781;1274;24481;-77
2023/11/23 08:04:06;;;;;;;18.10;11.10;;;;;;;2.20;81.82;96114.65;107012;1274;25424;-77
2023/11/23 08:06:34;;;;;;;16.60;10.40;;;;;;;2.25;81.67;96109.91;107275;1274;25500;-78
2023/11/23 08:09:04;;;;;;;16.20;10.30;;;;;;;2.31;80.53;96110.03;106925;1274;22639;-80
2023/11/23 08:11:32;;;;;;;19.40;11.70;;;;;;;2.27;78.68;96107.70;106854;1274;22634;-78
2023/11/23 08:14:00;;;;;;;104.00;46.90;;;;;;;2.26;78.43;96110.97;106829;1274;22546;-78
2023/11/23 08:16:29;;;;;;;15.90;10.00;;;;;;;2.26;78.20;96113.40;107034;1274;22527;-77
2023/11/23 08:18:57;;;;;;;13.10;7.60;;;;;;;2.25;77.47;96119.98;107040;1274;25364;-78
2023/11/23 08:21:25;;;;;;;70.80;27.50;;;;;;;2.25;77.20;96116.66;107199;1274;22519;-77
2023/11/23 08:23:54;;;;;;;21.50;11.60;;;;;;;2.26;77.57;96114.45;106923;1274;24485;-78
2023/11/23 08:26:23;;;;;;;22.40;9.90;;;;;;;2.28;77.43;96112.23;107121;1274;24228;-78
2023/11/23 08:28:51;;;;;;;22.00;10.00;;;;;;;2.32;77.68;96105.55;106828;1274;22523;-78
2023/11/23 08:31:21;;;;;;;19.00;10.30;;;;;;;2.39;78.25;96098.04;106867;1274;24288;-77
2023/11/23 08:33:50;;;;;;;20.90;11.30;;;;;;;2.32;76.02;96099.29;106995;1274;22566;-79
2023/11/23 08:36:18;;;;;;;26.80;10.90;;;;;;;2.36;77.32;96094.17;107047;1274;24198;-77
2023/11/23 08:38:46;;;;;;;18.70;9.40;;;;;;;2.46;77.80;96086.58;106818;1274;22521;-78
2023/11/23 08:41:18;;;;;;;11.80;6.90;;;;;;;2.54;77.50;96081.34;106750;1274;22520;-78
2023/11/23 08:43:47;;;;;;;9.80;6.10;;;;;;;2.59;77.35;96076.05;107105;1274;23912;-77
2023/11/23 08:46:15;;;;;;;15.10;7.60;;;;;;;2.55;75.37;96075.98;107090;1274;24218;-77
2023/11/23 08:48:44;;;;;;;8.30;5.40;;;;;;;2.62;76.27;96076.83;106987;1274;25431;-77
2023/11/23 08:51:14;;;;;;;13.60;6.70;;;;;;;2.67;76.43;96067.35;106858;1274;22562;-77
2023/11/23 08:53:42;;;;;;;10.90;6.70;;;;;;;2.70;76.80;96061.86;106815;1274;23924;-77
2023/11/23 08:56:10;;;;;;;13.80;7.30;;;;;;;2.81;76.93;96059.29;106826;1274;24051;-77
2023/11/23 08:58:41;;;;;;;9.40;6.20;;;;;;;2.91;77.19;96048.70;106818;1274;22543;-77
2023/11/23 09:01:10;;;;;;;15.40;7.60;;;;;;;2.96;74.91;96043.23;106795;1274;22543;-77
2023/11/23 09:03:38;;;;;;;11.30;7.20;;;;;;;3.02;75.83;96042.30;106941;1274;25264;-80
2023/11/23 09:06:10;;;;;;;10.80;6.80;;;;;;;3.10;74.75;96030.95;106900;1274;24355;-79
2023/11/23 09:08:40;;;;;;;12.70;7.20;;;;;;;3.21;74.50;96036.54;106881;1274;25408;-78
2023/11/23 09:11:08;;;;;;;42.10;22.90;;;;;;;3.32;74.13;96035.34;106951;1274;24403;-77
2023/11/23 09:13:36;;;;;;;20.80;12.10;;;;;;;3.45;74.11;96028.06;106825;1274;22527;-77
2023/11/23 09:16:06;;;;;;;15.50;8.60;;;;;;;3.50;73.69;96024.31;106959;1270;22561;-77
2023/11/23 09:18:35;;;;;;;16.70;8.40;;;;;;;3.57;73.90;96018.86;106921;1274;25488;-77
2023/11/23 09:21:05;;;;;;;14.60;8.00;;;;;;;3.67;74.03;96009.79;107188;1274;22705;-78
2023/11/23 09:23:33;;;;;;;17.40;11.80;;;;;;;3.97;74.57;96005.67;107196;1274;25248;-78
2023/11/23 09:26:03;;;;;;;30.70;20.30;;;;;;;4.25;74.90;96005.68;106952;1274;22534;-78
2023/11/23 09:28:31;;;;;;;13.30;8.10;;;;;;;4.51;74.07;96000.09;106841;1274;23854;-78
2023/11/23 09:30:59;;;;;;;19.90;15.30;;;;;;;4.65;72.56;95995.17;107118;1274;22523;-77
2023/11/23 09:33:29;;;;;;;20.20;12.40;;;;;;;4.68;70.74;95989.80;106736;1274;22608;-77
2023/11/23 09:36:02;;;;;;;10.40;7.20;;;;;;;4.62;70.17;95979.48;106915;1274;25294;-78
2023/11/23 09:38:30;;;;;;;11.60;8.10;;;;;;;4.55;69.83;95975.92;106976;1274;24389;-76
2023/11/23 09:40:59;;;;;;;12.80;7.70;;;;;;;4.59;69.95;95967.77;106853;1262;24407;-77
2023/11/23 09:43:29;;;;;;;11.50;7.50;;;;;;;4.72;70.46;95962.66;107159;1274;25331;-77
2023/11/23 09:45:58;;;;;;;10.30;7.30;;;;;;;4.97;70.35;95954.53;106884;1274;25189;-78
2023/11/23 09:48:28;;;;;;;12.10;8.40;;;;;;;5.16;69.40;95949.64;106856;1274;25363;-77
2023/11/23 09:50:56;;;;;;;13.70;7.80;;;;;;;5.37;68.79;95943.01;107031;1274;22650;-78
2023/11/23 09:53:26;;;;;;;11.20;7.50;;;;;;;5.49;67.81;95939.42;106985;1272;25287;-78
2023/11/23 09:55:55;;;;;;;11.10;6.90;;;;;;;5.64;68.61;95932.88;106847;1274;22534;-78
2023/11/23 09:58:24;;;;;;;12.60;8.60;;;;;;;5.85;68.50;95930.38;106904;1274;22752;-78
2023/11/23 10:00:53;;;;;;;10.70;7.20;;;;;;;6.06;67.71;95919.51;106986;1274;22577;-81
2023/11/23 10:03:23;;;;;;;11.30;6.60;;;;;;;6.23;67.95;95907.86;106810;1274;22532;-79
2023/11/23 10:05:52;;;;;;;9.20;6.20;;;;;;;6.40;65.70;95906.35;106995;1274;25323;-78
2023/11/23 10:08:20;;;;;;;12.90;7.90;;;;;;;6.49;65.55;95901.82;106842;1266;22621;-80
2023/11/23 10:10:48;;;;;;;8.00;5.80;;;;;;;6.79;65.03;95895.92;106774;1274;22534;-79
2023/11/23 10:13:19;;;;;;;10.90;7.80;;;;;;;7.02;65.88;95891.39;106925;1274;23019;-80
2023/11/23 10:15:47;;;;;;;9.70;7.80;;;;;;;7.14;66.11;95890.50;106813;1274;25246;-80
2023/11/23 10:18:17;;;;;;;13.20;8.20;;;;;;;7.23;65.96;95877.38;106840;1274;25303;-80
2023/11/23 10:20:46;;;;;;;12.00;8.80;;;;;;;7.32;66.09;95874.73;107885;1274;22599;-79
2023/11/23 10:23:15;;;;;;;13.90;9.20;;;;;;;7.34;65.57;95866.52;106960;1274;25534;-80
2023/11/23 10:25:43;;;;;;;16.30;12.50;;;;;;;7.31;65.73;95863.55;106751;1274;25274;-80
2023/11/23 10:28:11;;;;;;;16.80;14.40;;;;;;;7.20;65.80;95858.31;107027;1274;22733;-80
2023/11/23 10:30:39;;;;;;;12.50;9.40;;;;;;;7.16;66.27;95853.59;106861;1274;22544;-80
2023/11/23 10:33:11;;;;;;;15.50;10.70;;;;;;;7.06;66.32;95852.37;106750;1274;25316;-80
2023/11/23 10:35:50;;;;;;;12.10;10.80;;;;;;;6.93;66.97;95849.06;106903;1274;25351;-79
2023/11/23 10:38:22;;;;;;;13.30;9.20;;;;;;;6.73;67.25;95844.34;106958;1274;22657;-80
2023/11/23 10:41:03;;;;;;;12.00;8.40;;;;;;;6.57;68.06;95842.06;106783;1274;26626;-80
2023/11/23 10:43:34;;;;;;;13.30;9.40;;;;;;;6.38;68.61;95844.66;107130;1274;22531;-79
2023/11/23 10:46:09;;;;;;;15.60;11.60;;;;;;;6.28;68.69;95835.91;106866;1274;22527;-80
2023/11/23 10:48:38;;;;;;;11.30;8.50;;;;;;;6.11;69.18;95831.33;106789;1274;22785;-79
2023/11/23 10:51:06;;;;;;;12.20;8.60;;;;;;;5.98;69.95;95825.52;106507;1275;23685;-80
2023/11/23 10:53:35;;;;;;;12.80;9.60;;;;;;;5.87;70.27;95819.17;106746;1274;23922;-80
2023/11/23 10:56:14;;;;;;;12.60;8.00;;;;;;;5.76;70.47;95817.21;106800;1274;24230;-80
2023/11/23 10:58:45;;;;;;;12.10;8.30;;;;;;;5.67;70.71;95810.38;106783;1274;22671;-79
2023/11/23 11:01:21;;;;;;;13.20;8.90;;;;;;;5.53;71.01;95809.96;106775;1274;25383;-80
2023/11/23 11:03:50;;;;;;;14.00;8.40;;;;;;;5.42;71.52;95810.09;106892;1274;24082;-80
2023/11/23 11:06:21;;;;;;;14.00;8.40;;;;;;;5.36;71.83;95808.33;106832;1274;25414;-79
2023/11/23 11:08:50;;;;;;;15.20;9.90;;;;;;;5.26;71.97;95807.58;106833;1274;24192;-80
2023/11/23 11:11:24;;;;;;;14.00;8.50;;;;;;;5.12;72.07;95813.25;106796;1274;25287;-80
2023/11/23 11:14:02;;;;;;;17.40;12.40;;;;;;;5.00;72.68;95811.09;106745;1274;22546;-79
2023/11/23 11:16:33;;;;;;;14.60;9.70;;;;;;;4.95;72.83;95809.48;106701;1274;25226;-80
2023/11/23 11:19:13;;;;;;;17.60;12.20;;;;;;;4.88;73.35;95806.81;106822;1251;24372;-79
2023/11/23 11:21:48;;;;;;;18.10;10.40;;;;;;;4.86;73.68;95808.90;106800;1274;22523;-79
2023/11/23 11:24:21;;;;;;;14.80;9.20;;;;;;;4.93;73.89;95812.80;107123;1274;22570;-79
2023/11/23 11:26:50;;;;;;;13.60;8.90;;;;;;;5.01;73.90;95813.17;106881;1274;25471;-78
2023/11/23 11:29:19;;;;;;;15.00;9.10;;;;;;;5.26;73.69;95796.23;106783;1274;22536;-79